Time;durP1;ratioP1;P1;durP2;ratioP2;P2;SDS_P1;SDS_P2;PMS_P1;PMS_P2;Temp;Humidity;BMP_temperature;BMP_pressure;BME280_temperature;BME280_humidity;BME280_pressure;Samples;Min_cycle;Max_cycle;Signal;HPM_P1;HPM_P2
2022/12/25 00:00:49;;;;;;;60.95;15.07;;;5.70;99.90;;;;;;5064037;28;20075;-73
2022/12/25 00:03:15;;;;;;;66.15;15.85;;;5.70;99.90;;;;;;5062746;28;20040;-73
2022/12/25 00:05:41;;;;;;;46.45;14.68;;;5.70;99.90;;;;;;5034104;28;20048;-72
2022/12/25 00:08:06;;;;;;;58.72;15.93;;;5.70;99.90;;;;;;5045996;28;20581;-72
2022/12/25 00:10:32;;;;;;;62.47;15.55;;;5.70;99.90;;;;;;5052224;28;20044;-72
2022/12/25 00:12:58;;;;;;;49.97;15.93;;;5.70;99.90;;;;;;5072330;28;20090;-72
2022/12/25 00:15:24;;;;;;;51.22;15.30;;;5.70;99.90;;;;;;5051386;28;20040;-73
2022/12/25 00:17:49;;;;;;;59.58;15.52;;;5.70;99.90;;;;;;5068473;28;20595;-73
2022/12/25 00:20:15;;;;;;;67.85;15.63;;;5.70;99.90;;;;;;5036284;28;20850;-73
2022/12/25 00:22:41;;;;;;;47.25;15.05;;;5.70;99.90;;;;;;5046232;28;20052;-73
2022/12/25 00:25:09;;;;;;;58.13;15.35;;;5.70;99.90;;;;;;5033166;28;20041;-72
2022/12/25 00:27:36;;;;;;;50.67;15.93;;;5.70;99.90;;;;;;5044444;28;20072;-72
2022/12/25 00:30:05;;;;;;;69.45;16.00;;;5.70;99.90;;;;;;5050359;28;20085;-72
2022/12/25 00:32:33;;;;;;;48.88;15.98;;;5.70;99.90;;;;;;5070321;28;20047;-73
2022/12/25 00:34:59;;;;;;;59.42;15.75;;;5.70;99.90;;;;;;5058859;28;20047;-73
2022/12/25 00:37:24;;;;;;;60.53;15.93;;;5.80;99.90;;;;;;5058261;28;20025;-73
2022/12/25 00:39:51;;;;;;;65.13;18.33;;;5.70;99.90;;;;;;5051493;28;20499;-73
2022/12/25 00:42:19;;;;;;;77.60;19.05;;;5.70;99.90;;;;;;5053877;28;20048;-72
2022/12/25 00:44:47;;;;;;;68.90;16.95;;;5.70;99.90;;;;;;5041683;28;20044;-73
2022/12/25 00:47:13;;;;;;;71.32;18.77;;;5.70;99.90;;;;;;5051582;28;20050;-73
2022/12/25 00:49:39;;;;;;;71.03;19.85;;;5.70;99.90;;;;;;5067453;28;20052;-73
2022/12/25 00:52:04;;;;;;;54.13;19.00;;;5.80;99.90;;;;;;5038688;28;20683;-73
2022/12/25 00:54:30;;;;;;;68.10;19.45;;;5.80;99.90;;;;;;5045921;28;20051;-73
2022/12/25 00:56:56;;;;;;;79.50;19.90;;;5.90;99.90;;;;;;5067963;28;20046;-73
2022/12/25 00:59:21;;;;;;;75.00;20.40;;;5.90;99.90;;;;;;5048207;28;20047;-73
2022/12/25 01:01:47;;;;;;;61.15;18.70;;;5.90;99.90;;;;;;5051389;28;20567;-73
2022/12/25 01:04:13;;;;;;;69.18;19.55;;;5.90;99.90;;;;;;5050298;28;20060;-73
2022/12/25 01:06:39;;;;;;;67.63;19.88;;;5.90;99.90;;;;;;5038770;28;20044;-74
2022/12/25 01:11:49;;;;;;;77.35;20.73;;;6.10;99.90;;;;;;5050342;28;20083;-70
2022/12/25 01:14:15;;;;;;;108.03;22.60;;;6.00;99.90;;;;;;5063320;28;20742;-73
2022/12/25 01:16:41;;;;;;;109.32;21.40;;;6.00;99.90;;;;;;5033748;28;20133;-72
2022/12/25 01:19:07;;;;;;;85.82;21.10;;;6.00;99.90;;;;;;5048856;28;20599;-73
2022/12/25 01:21:33;;;;;;;95.43;20.58;;;6.00;99.90;;;;;;5059627;28;20090;-73
2022/12/25 01:23:59;;;;;;;94.35;20.58;;;6.10;99.90;;;;;;5049120;28;20558;-72
2022/12/25 01:26:26;;;;;;;74.90;20.10;;;6.10;99.90;;;;;;5059095;28;20036;-73
2022/12/25 01:28:52;;;;;;;76.78;20.83;;;6.10;99.90;;;;;;5072019;28;20153;-71
2022/12/25 01:31:20;;;;;;;80.63;21.15;;;6.10;99.90;;;;;;5052791;28;20050;-73
2022/12/25 01:33:46;;;;;;;76.78;19.02;;;6.10;99.90;;;;;;5045503;28;20162;-73
2022/12/25 01:36:18;;;;;;;88.85;20.42;;;6.10;99.90;;;;;;5073267;28;20055;-73
2022/12/25 01:38:44;;;;;;;92.50;20.73;;;6.10;99.90;;;;;;5056051;28;20511;-73
2022/12/25 01:41:12;;;;;;;90.80;19.17;;;6.20;99.90;;;;;;5056080;28;20044;-73
2022/12/25 01:43:57;;;;;;;48.40;17.95;;;6.10;99.90;;;;;;5052295;28;20700;-73
2022/12/25 01:46:24;;;;;;;98.28;20.75;;;6.10;99.90;;;;;;5036612;28;20144;-73
2022/12/25 01:48:51;;;;;;;76.05;19.10;;;6.10;99.90;;;;;;5058078;28;20060;-73
2022/12/25 01:51:26;;;;;;;67.10;19.73;;;6.10;99.90;;;;;;5051629;28;20044;-74
2022/12/25 01:53:52;;;;;;;59.88;20.35;;;6.50;99.90;;;;;;5057119;28;20484;-71
2022/12/25 01:56:18;;;;;;;70.03;20.38;;;6.20;99.90;;;;;;5052532;28;20437;-73
2022/12/25 01:58:44;;;;;;;71.72;21.20;;;6.20;99.90;;;;;;5066466;28;20159;-73
2022/12/25 02:01:10;;;;;;;74.60;21.40;;;6.20;99.90;;;;;;5074015;28;20059;-72
2022/12/25 02:03:36;;;;;;;81.35;20.95;;;6.20;99.90;;;;;;5058138;28;20122;-71
2022/12/25 02:06:03;;;;;;;75.68;21.45;;;6.30;99.90;;;;;;5062195;28;20125;-73
2022/12/25 02:08:29;;;;;;;62.58;19.80;;;6.20;99.90;;;;;;5043445;28;20045;-72
2022/12/25 02:10:55;;;;;;;63.40;19.10;;;6.30;99.90;;;;;;5058937;28;20058;-73
2022/12/25 02:13:21;;;;;;;62.35;21.35;;;6.30;99.90;;;;;;5054741;28;20056;-73
2022/12/25 02:16:18;;;;;;;64.63;21.45;;;6.30;99.90;;;;;;5070419;28;20048;-72
2022/12/25 02:18:54;;;;;;;77.35;22.45;;;6.30;99.90;;;;;;5037117;28;20698;-73
2022/12/25 02:21:38;;;;;;;72.95;22.80;;;6.40;99.90;;;;;;5068378;28;20040;-73
2022/12/25 02:24:12;;;;;;;74.53;21.40;;;6.40;99.90;;;;;;5054947;28;20047;-72
2022/12/25 02:26:57;;;;;;;85.57;23.33;;;6.40;99.90;;;;;;5043129;28;20040;-73
2022/12/25 02:29:57;;;;;;;79.95;22.83;;;6.40;99.90;;;;;;5068335;28;20044;-71
2022/12/25 02:32:35;;;;;;;73.78;22.38;;;6.40;99.90;;;;;;5055747;28;20044;-72
2022/12/25 02:35:21;;;;;;;81.53;21.33;;;6.50;99.90;;;;;;5075112;28;20524;-72
2022/12/25 02:38:15;;;;;;;82.65;21.52;;;6.50;99.90;;;;;;5078321;28;20047;-72
2022/12/25 02:40:55;;;;;;;90.28;20.90;;;6.50;99.90;;;;;;5076654;28;20181;-74
2022/12/25 03:06:43;;;;;;;69.18;23.00;;;6.80;99.90;;;;;;5048763;28;20052;-72
2022/12/25 03:12:15;;;;;;;77.70;23.92;;;6.90;99.90;;;;;;5051632;28;20127;-73
2022/12/25 03:17:25;;;;;;;69.63;21.77;;;6.90;99.90;;;;;;5077018;28;20044;-72
2022/12/25 03:28:06;;;;;;;80.38;23.27;;;7.00;99.90;;;;;;5069237;28;20055;-72
2022/12/25 03:31:12;;;;;;;68.60;23.88;;;7.00;99.90;;;;;;5055298;28;20249;-72
2022/12/25 03:37:03;;;;;;;65.55;23.25;;;7.10;99.90;;;;;;5048732;28;20221;-73
2022/12/25 04:37:59;;;;;;;84.22;27.02;;;7.40;99.90;;;;;;5052793;28;20752;-73
2022/12/25 04:40:24;;;;;;;90.20;25.02;;;7.40;99.90;;;;;;5058962;28;20044;-73
2022/12/25 04:42:51;;;;;;;78.35;25.70;;;7.40;99.90;;;;;;5049571;28;21059;-73
2022/12/25 04:45:17;;;;;;;83.88;26.70;;;7.40;99.90;;;;;;5053606;28;20048;-73
2022/12/25 04:47:43;;;;;;;84.03;26.23;;;7.50;99.90;;;;;;5070697;28;20040;-73
2022/12/25 04:50:09;;;;;;;89.55;26.83;;;7.50;99.90;;;;;;5047434;28;20047;-71
2022/12/25 04:52:39;;;;;;;89.20;26.20;;;7.50;99.90;;;;;;5055903;28;20286;-73
2022/12/25 04:55:07;;;;;;;92.47;27.23;;;7.50;99.90;;;;;;5058005;28;20032;-73
2022/12/25 04:57:33;;;;;;;90.10;26.08;;;7.50;99.90;;;;;;5048294;28;20105;-72
2022/12/25 04:59:58;;;;;;;80.53;26.00;;;7.50;99.90;;;;;;5051590;28;20036;-73
2022/12/25 05:02:24;;;;;;;91.03;26.70;;;7.50;99.90;;;;;;5034397;28;20036;-73
2022/12/25 05:04:50;;;;;;;96.75;26.17;;;7.50;99.90;;;;;;5053554;28;20059;-72
2022/12/25 05:07:16;;;;;;;85.00;26.13;;;7.60;99.90;;;;;;5075688;28;20032;-73
2022/12/25 05:09:42;;;;;;;96.68;26.50;;;7.60;99.90;;;;;;5054200;28;20045;-72
2022/12/25 05:12:08;;;;;;;95.90;26.08;;;7.60;99.90;;;;;;5048002;28;20055;-72
2022/12/25 05:14:34;;;;;;;90.95;27.00;;;7.60;99.90;;;;;;5070268;28;20110;-72
2022/12/25 05:17:00;;;;;;;84.53;25.70;;;7.70;99.90;;;;;;5048818;28;20052;-72
2022/12/25 05:19:26;;;;;;;75.85;26.33;;;7.60;99.90;;;;;;5035259;28;20039;-72
2022/12/25 05:21:52;;;;;;;92.75;25.65;;;7.60;99.90;;;;;;5055973;28;20063;-72
2022/12/25 05:24:19;;;;;;;75.22;25.30;;;7.60;99.90;;;;;;5055299;28;20276;-72
2022/12/25 05:26:45;;;;;;;89.47;24.85;;;7.80;99.90;;;;;;5046768;28;20400;-73
2022/12/25 05:29:11;;;;;;;85.88;26.67;;;7.70;99.90;;;;;;5061751;28;20044;-73
2022/12/25 05:31:36;;;;;;;85.57;25.85;;;7.70;99.90;;;;;;5054532;28;20079;-72
2022/12/25 05:34:02;;;;;;;83.38;27.08;;;7.70;99.90;;;;;;5062100;28;20101;-73
2022/12/25 05:36:28;;;;;;;90.72;26.08;;;7.70;99.90;;;;;;5059217;28;20036;-72
2022/12/25 05:38:54;;;;;;;86.63;26.50;;;7.80;99.90;;;;;;5079727;28;20150;-73
2022/12/25 05:41:19;;;;;;;85.05;26.75;;;7.80;99.90;;;;;;5059748;28;20040;-71
2022/12/25 05:43:45;;;;;;;80.53;25.70;;;7.80;99.90;;;;;;5069748;28;20128;-73
2022/12/25 05:46:12;;;;;;;83.65;25.40;;;7.80;99.90;;;;;;5057509;28;20048;-72
2022/12/25 05:48:38;;;;;;;92.68;26.30;;;7.80;99.90;;;;;;5056565;28;20075;-72
2022/12/25 05:51:06;;;;;;;75.75;25.70;;;7.80;99.90;;;;;;5050210;28;20036;-72
2022/12/25 05:53:32;;;;;;;94.10;26.42;;;7.80;99.90;;;;;;5057307;28;20123;-73
2022/12/25 05:56:02;;;;;;;99.70;26.85;;;7.80;99.90;;;;;;5058411;28;20838;-73
2022/12/25 05:58:28;;;;;;;99.47;26.83;;;7.80;99.90;;;;;;5050824;28;20956;-73
2022/12/25 06:00:54;;;;;;;98.63;27.15;;;7.80;99.90;;;;;;5053457;28;20054;-73
2022/12/25 06:03:19;;;;;;;99.68;27.80;;;7.80;99.90;;;;;;5070132;28;20052;-73
2022/12/25 06:05:45;;;;;;;87.55;27.33;;;7.90;99.90;;;;;;5072677;28;20432;-74
2022/12/25 06:08:11;;;;;;;77.88;26.50;;;7.90;99.90;;;;;;5072333;28;20531;-73
2022/12/25 06:10:36;;;;;;;97.65;28.38;;;7.90;99.90;;;;;;5060082;28;20836;-74
2022/12/25 06:13:02;;;;;;;103.68;28.92;;;7.90;99.90;;;;;;5032536;28;20719;-72
2022/12/25 06:15:29;;;;;;;88.50;28.33;;;7.90;99.90;;;;;;5048747;28;20082;-73
2022/12/25 06:17:54;;;;;;;107.97;28.67;;;7.90;99.90;;;;;;5016807;28;20055;-72
2022/12/25 06:20:20;;;;;;;93.63;28.65;;;7.90;99.90;;;;;;5019605;28;20049;-73
2022/12/25 06:22:46;;;;;;;98.20;28.95;;;7.90;99.90;;;;;;5021505;28;20215;-72
2022/12/25 06:25:12;;;;;;;105.38;27.98;;;7.90;99.90;;;;;;5035016;28;20602;-73
2022/12/25 06:27:40;;;;;;;92.55;28.10;;;7.90;99.90;;;;;;5053472;28;20143;-73
2022/12/25 06:30:07;;;;;;;88.72;28.10;;;7.90;99.90;;;;;;5038131;28;20037;-73
2022/12/25 06:32:32;;;;;;;88.63;27.75;;;7.90;99.90;;;;;;5032901;28;20804;-73
2022/12/25 06:34:58;;;;;;;85.20;27.75;;;7.90;99.90;;;;;;5037860;28;20135;-73
2022/12/25 06:37:24;;;;;;;92.05;28.73;;;7.90;99.90;;;;;;5055826;28;20385;-72
2022/12/25 06:39:49;;;;;;;87.75;27.48;;;7.90;99.90;;;;;;5055171;28;20041;-72
2022/12/25 06:42:15;;;;;;;92.95;27.35;;;8.00;99.90;;;;;;5055403;28;20044;-72
2022/12/25 06:44:41;;;;;;;92.88;27.92;;;8.00;99.90;;;;;;5042740;28;20400;-72
2022/12/25 06:47:06;;;;;;;106.40;28.98;;;8.00;99.90;;;;;;5036459;28;20040;-73
2022/12/25 06:49:32;;;;;;;101.65;28.85;;;8.00;99.90;;;;;;5041248;28;20772;-73
2022/12/25 06:51:58;;;;;;;98.82;28.75;;;8.00;99.90;;;;;;5041649;28;20060;-72
2022/12/25 06:54:23;;;;;;;109.10;28.00;;;8.00;99.90;;;;;;5010633;28;20131;-72
2022/12/25 06:56:49;;;;;;;92.97;27.02;;;8.00;99.90;;;;;;5050461;28;20779;-72
2022/12/25 06:59:16;;;;;;;88.03;27.73;;;8.00;99.90;;;;;;5020680;28;20621;-72
2022/12/25 07:01:46;;;;;;;98.05;28.73;;;8.00;99.90;;;;;;5041026;28;20133;-73
2022/12/25 07:04:36;;;;;;;92.53;26.98;;;8.00;99.90;;;;;;5041170;28;20060;-73
2022/12/25 07:07:03;;;;;;;100.32;27.70;;;8.00;99.90;;;;;;5036567;28;20136;-73
2022/12/25 07:09:29;;;;;;;90.15;26.40;;;8.10;99.90;;;;;;5036287;28;20131;-72
2022/12/25 07:12:03;;;;;;;88.75;27.67;;;8.00;99.90;;;;;;5040291;28;20440;-73
2022/12/25 07:14:29;;;;;;;85.38;27.25;;;8.00;99.90;;;;;;5074249;28;20564;-73
2022/12/25 07:16:55;;;;;;;89.20;27.45;;;8.00;99.90;;;;;;5074567;28;20035;-72
2022/12/25 07:19:20;;;;;;;94.47;27.17;;;8.40;99.90;;;;;;5051407;28;20555;-72
2022/12/25 07:21:46;;;;;;;88.45;27.73;;;8.00;99.90;;;;;;5075119;28;20051;-72
2022/12/25 07:24:18;;;;;;;87.55;26.88;;;8.20;99.90;;;;;;5077667;28;20059;-72
2022/12/25 07:26:44;;;;;;;81.70;28.60;;;8.00;99.90;;;;;;5056984;28;20051;-73
2022/12/25 07:29:09;;;;;;;88.82;27.15;;;8.00;99.90;;;;;;5034204;28;20040;-72
2022/12/25 07:31:36;;;;;;;74.93;26.40;;;8.10;99.90;;;;;;5059218;28;20048;-73
2022/12/25 07:34:02;;;;;;;79.63;26.92;;;8.10;99.90;;;;;;5051909;28;20089;-73
2022/12/25 07:36:29;;;;;;;88.57;26.73;;;8.10;99.90;;;;;;5070884;28;20075;-73
2022/12/25 07:38:55;;;;;;;80.03;26.73;;;8.10;99.90;;;;;;5053737;28;20408;-72
2022/12/25 07:41:22;;;;;;;71.78;26.45;;;8.10;99.90;;;;;;5057654;28;20044;-72
2022/12/25 07:43:52;;;;;;;81.07;25.55;;;8.10;99.90;;;;;;5053795;28;20702;-72
2022/12/25 07:46:18;;;;;;;79.80;25.60;;;8.10;99.90;;;;;;5055164;28;20040;-72
2022/12/25 07:48:44;;;;;;;77.20;26.00;;;8.10;99.90;;;;;;5067793;28;20519;-72
2022/12/25 07:51:12;;;;;;;65.65;23.98;;;8.10;99.90;;;;;;5040084;28;20036;-72
2022/12/25 07:53:39;;;;;;;79.53;24.90;;;8.10;99.90;;;;;;5067348;28;20051;-72
2022/12/25 07:56:09;;;;;;;61.83;25.13;;;8.10;99.90;;;;;;5052751;28;20417;-72
2022/12/25 07:58:35;;;;;;;78.55;25.20;;;8.10;99.90;;;;;;5061079;28;20036;-72
2022/12/25 08:01:06;;;;;;;75.32;26.85;;;8.20;99.90;;;;;;5059257;28;20055;-73
2022/12/25 08:03:33;;;;;;;73.75;26.13;;;8.10;99.90;;;;;;5051892;28;20521;-73
2022/12/25 08:06:07;;;;;;;69.70;24.85;;;8.20;99.90;;;;;;5048553;28;20105;-71
2022/12/25 08:08:34;;;;;;;69.22;24.50;;;8.20;99.90;;;;;;5066079;28;20044;-73
2022/12/25 08:11:00;;;;;;;67.15;24.42;;;8.10;99.90;;;;;;5046697;28;20056;-74
2022/12/25 08:13:29;;;;;;;61.75;24.65;;;8.20;99.90;;;;;;5061666;28;20044;-73
2022/12/25 08:16:00;;;;;;;62.67;23.80;;;8.20;99.90;;;;;;5062063;28;20056;-73
2022/12/25 08:18:29;;;;;;;63.60;24.20;;;8.20;99.90;;;;;;5073789;28;20427;-73
2022/12/25 08:20:55;;;;;;;61.55;21.85;;;8.20;99.90;;;;;;5075755;28;20122;-73
2022/12/25 08:23:20;;;;;;;59.53;23.80;;;8.20;99.90;;;;;;5078994;28;20173;-72
2022/12/25 08:25:46;;;;;;;58.92;22.02;;;8.30;99.90;;;;;;5038415;28;20147;-73
2022/12/25 08:28:12;;;;;;;53.55;22.50;;;8.50;99.90;;;;;;5080577;28;20126;-73
2022/12/25 08:30:38;;;;;;;62.80;21.73;;;8.30;99.90;;;;;;5060389;28;20711;-73
2022/12/25 08:33:05;;;;;;;58.88;22.70;;;8.30;99.90;;;;;;5065793;28;20130;-73
2022/12/25 08:35:33;;;;;;;52.83;21.67;;;8.60;99.90;;;;;;5080888;28;20123;-73
2022/12/25 08:37:59;;;;;;;53.38;21.00;;;8.30;99.90;;;;;;5059427;28;20057;-73
2022/12/25 08:40:25;;;;;;;55.88;20.58;;;8.30;99.90;;;;;;5046461;28;20044;-73
2022/12/25 08:42:51;;;;;;;47.38;20.50;;;8.50;99.90;;;;;;5063152;28;20056;-73
2022/12/25 08:45:17;;;;;;;51.55;21.10;;;8.30;99.90;;;;;;5048059;28;20108;-73
2022/12/25 08:47:42;;;;;;;43.50;19.55;;;8.30;99.90;;;;;;5082161;28;20044;-74
2022/12/25 08:50:11;;;;;;;45.90;19.52;;;8.30;99.90;;;;;;5063707;28;20052;-73
2022/12/25 08:52:36;;;;;;;50.28;20.30;;;8.30;99.90;;;;;;5048928;28;20043;-74
2022/12/25 08:55:03;;;;;;;44.30;18.73;;;8.40;99.90;;;;;;5062566;28;20420;-74
2022/12/25 08:57:28;;;;;;;46.75;18.08;;;8.40;99.90;;;;;;5067888;28;20047;-73
2022/12/25 08:59:54;;;;;;;42.88;19.70;;;8.40;99.90;;;;;;5067700;28;20075;-73
2022/12/25 09:02:20;;;;;;;42.50;19.27;;;8.40;99.90;;;;;;5086665;28;20048;-73
2022/12/25 09:04:46;;;;;;;37.55;17.60;;;8.40;99.90;;;;;;5085714;28;20040;-73
2022/12/25 09:07:11;;;;;;;38.17;17.83;;;8.40;99.90;;;;;;5051595;28;20510;-73
2022/12/25 09:09:37;;;;;;;41.90;17.02;;;8.40;99.90;;;;;;5080775;28;20043;-73
2022/12/25 09:12:03;;;;;;;40.45;16.27;;;8.60;99.90;;;;;;5055918;28;20413;-73
2022/12/25 09:14:29;;;;;;;36.45;15.20;;;8.40;99.90;;;;;;5065984;28;20513;-72
2022/12/25 09:16:55;;;;;;;37.42;15.60;;;8.40;99.90;;;;;;5064951;28;20580;-72
2022/12/25 09:19:21;;;;;;;37.78;16.33;;;8.40;99.90;;;;;;5066171;28;20047;-72
2022/12/25 09:21:47;;;;;;;33.63;15.32;;;8.50;99.90;;;;;;5065333;28;20044;-73
2022/12/25 09:24:13;;;;;;;39.40;15.73;;;8.40;99.90;;;;;;5064415;28;20083;-72
2022/12/25 09:26:41;;;;;;;33.88;15.57;;;8.40;99.90;;;;;;5066255;28;20052;-72
2022/12/25 09:29:07;;;;;;;32.28;14.32;;;8.40;99.90;;;;;;5046678;28;20541;-72
2022/12/25 09:31:33;;;;;;;36.78;14.60;;;8.50;99.90;;;;;;5028090;28;20103;-72
2022/12/25 09:33:58;;;;;;;30.20;14.15;;;8.50;99.90;;;;;;5046848;28;20044;-73
2022/12/25 09:36:24;;;;;;;35.58;15.07;;;8.50;99.90;;;;;;5048119;28;20135;-73
2022/12/25 09:38:53;;;;;;;36.80;14.68;;;8.50;99.90;;;;;;5024275;28;20048;-73
2022/12/25 09:41:45;;;;;;;33.17;14.60;;;8.50;99.90;;;;;;5046943;28;20455;-72
2022/12/25 09:44:18;;;;;;;35.33;13.43;;;8.50;99.90;;;;;;5047169;28;20036;-72
2022/12/25 09:46:52;;;;;;;32.85;15.23;;;8.50;99.90;;;;;;5064750;28;20045;-72
2022/12/25 09:49:27;;;;;;;27.13;14.75;;;8.50;99.90;;;;;;5047711;28;20084;-72
2022/12/25 09:52:01;;;;;;;31.02;14.50;;;8.50;99.90;;;;;;5029845;28;20129;-72
2022/12/25 09:54:39;;;;;;;38.10;14.00;;;8.50;99.90;;;;;;5041362;28;20527;-73
2022/12/25 09:57:11;;;;;;;30.08;13.63;;;8.50;99.90;;;;;;5046695;28;20056;-72
2022/12/25 09:59:37;;;;;;;35.83;13.40;;;8.50;99.90;;;;;;5046663;28;20857;-72
2022/12/25 10:02:26;;;;;;;30.80;13.57;;;8.50;99.90;;;;;;5046513;28;20040;-72
2022/12/25 10:05:03;;;;;;;30.25;13.20;;;8.50;99.90;;;;;;5039230;28;20059;-73
2022/12/25 10:08:13;;;;;;;24.67;13.02;;;8.50;99.90;;;;;;5065209;28;20930;-72
2022/12/25 10:11:02;;;;;;;33.88;13.18;;;8.50;99.90;;;;;;5047474;28;20063;-71
2022/12/25 10:13:43;;;;;;;25.48;12.93;;;8.60;99.90;;;;;;5081321;28;20062;-72
2022/12/25 10:16:30;;;;;;;32.25;13.27;;;8.50;99.90;;;;;;5047073;28;20110;-72
2022/12/25 10:19:14;;;;;;;29.67;12.60;;;8.50;99.90;;;;;;5077607;28;20405;-71
2022/12/25 10:21:40;;;;;;;28.20;12.52;;;8.50;99.90;;;;;;5071858;28;20047;-72
2022/12/25 10:24:34;;;;;;;27.95;12.10;;;8.50;99.90;;;;;;5065978;28;20052;-72
2022/12/25 10:27:12;;;;;;;27.65;11.93;;;8.60;99.90;;;;;;5033026;28;20056;-72
2022/12/25 10:29:38;;;;;;;25.52;11.70;;;8.50;99.90;;;;;;5078862;28;20062;-72
2022/12/25 10:32:04;;;;;;;24.35;11.85;;;8.50;99.90;;;;;;5070000;28;20047;-72
2022/12/25 10:34:31;;;;;;;28.65;12.23;;;8.50;99.90;;;;;;5049180;28;20040;-73
2022/12/25 10:36:57;;;;;;;24.95;12.10;;;8.50;99.90;;;;;;5065292;28;20052;-72
2022/12/25 10:39:24;;;;;;;24.75;12.05;;;8.50;99.90;;;;;;5078114;28;20032;-73
2022/12/25 10:42:05;;;;;;;21.50;10.95;;;8.50;99.90;;;;;;5065429;28;20056;-72
2022/12/25 10:44:33;;;;;;;28.25;12.38;;;8.60;99.90;;;;;;5061299;28;20759;-72
2022/12/25 10:47:00;;;;;;;19.88;11.75;;;8.60;99.90;;;;;;5065749;28;20550;-73
2022/12/25 10:49:33;;;;;;;27.58;12.23;;;8.60;99.90;;;;;;5083598;28;20042;-73
2022/12/25 10:51:59;;;;;;;30.30;11.85;;;8.60;99.90;;;;;;5065462;28;20067;-72
2022/12/25 10:54:29;;;;;;;24.17;11.57;;;8.60;99.90;;;;;;5069920;28;20491;-73
2022/12/25 10:56:55;;;;;;;23.83;11.18;;;8.60;99.90;;;;;;5063953;28;20626;-73
2022/12/25 10:59:21;;;;;;;26.10;12.50;;;8.60;99.90;;;;;;5084376;28;20047;-73
2022/12/25 11:01:47;;;;;;;25.27;11.73;;;8.60;99.90;;;;;;5065358;28;20043;-74
2022/12/25 11:04:23;;;;;;;25.92;11.85;;;8.60;99.90;;;;;;5064832;28;20527;-73
2022/12/25 11:07:12;;;;;;;23.63;11.70;;;8.60;99.90;;;;;;5083470;28;20106;-75
2022/12/25 11:09:39;;;;;;;27.48;12.25;;;8.60;99.90;;;;;;5083339;28;20051;-73
2022/12/25 11:12:05;;;;;;;24.50;11.82;;;8.60;99.90;;;;;;5064389;28;20622;-73
2022/12/25 11:14:31;;;;;;;25.02;10.93;;;8.60;99.90;;;;;;5064999;28;20927;-75
2022/12/25 11:17:20;;;;;;;23.08;11.65;;;8.60;99.90;;;;;;5082256;28;20127;-73
2022/12/25 11:19:52;;;;;;;21.80;11.63;;;8.70;99.90;;;;;;5082776;28;20492;-73
2022/12/25 11:22:19;;;;;;;24.52;10.85;;;8.70;99.90;;;;;;5087937;28;20051;-74
2022/12/25 11:24:45;;;;;;;22.63;10.20;;;8.70;99.90;;;;;;5047289;28;20134;-74
2022/12/25 11:27:29;;;;;;;22.75;10.65;;;8.70;99.90;;;;;;5064911;28;20056;-73
2022/12/25 11:30:04;;;;;;;24.15;12.48;;;8.70;99.90;;;;;;5064809;28;20044;-73
2022/12/25 11:33:09;;;;;;;23.13;10.68;;;8.70;99.90;;;;;;5070210;28;20047;-73
2022/12/25 11:35:45;;;;;;;24.25;9.57;;;8.70;99.90;;;;;;5083652;28;20062;-74
2022/12/25 11:38:11;;;;;;;16.92;9.70;;;8.70;99.90;;;;;;5064386;28;20447;-73
2022/12/25 11:40:50;;;;;;;28.63;10.50;;;9.10;99.90;;;;;;5064231;28;20117;-73
2022/12/25 11:43:47;;;;;;;25.70;10.57;;;8.70;99.90;;;;;;5065567;28;20063;-73
2022/12/25 11:46:25;;;;;;;21.05;9.30;;;8.70;99.90;;;;;;5080013;28;20055;-73
2022/12/25 11:48:56;;;;;;;19.20;10.35;;;8.70;99.90;;;;;;5064806;28;20048;-73
2022/12/25 11:51:32;;;;;;;21.63;10.43;;;8.70;99.90;;;;;;5065790;28;20067;-73
2022/12/25 11:54:20;;;;;;;20.27;10.48;;;8.70;99.90;;;;;;5086110;28;20051;-73
2022/12/25 11:56:46;;;;;;;21.20;9.25;;;8.70;99.90;;;;;;5060748;28;20051;-74
2022/12/25 11:59:45;;;;;;;21.90;9.13;;;8.80;99.90;;;;;;5063970;28;20509;-74
2022/12/25 12:02:27;;;;;;;18.23;9.15;;;8.80;99.90;;;;;;5041128;28;20048;-73
2022/12/25 12:05:01;;;;;;;;;;;8.80;99.90;;;;;;5064508;28;20071;-72
2022/12/25 12:07:32;;;;;;;19.73;9.93;;;8.70;99.90;;;;;;5082308;28;20426;-73
2022/12/25 12:10:19;;;;;;;17.92;10.15;;;8.70;99.90;;;;;;5064236;28;20054;-72
2022/12/25 12:12:48;;;;;;;20.85;10.15;;;8.80;99.90;;;;;;5043795;28;20776;-73
2022/12/25 12:15:42;;;;;;;20.92;8.57;;;9.00;99.90;;;;;;5064896;28;20064;-72
2022/12/25 12:18:19;;;;;;;17.90;8.88;;;8.70;99.90;;;;;;5063262;28;20436;-72
2022/12/25 12:20:55;;;;;;;17.33;8.05;;;9.00;99.90;;;;;;5067219;28;20052;-72
2022/12/25 12:23:21;;;;;;;23.50;8.23;;;8.80;99.90;;;;;;5065117;28;20656;-72
2022/12/25 12:25:48;;;;;;;17.70;8.00;;;8.80;99.90;;;;;;5064705;28;20147;-71
2022/12/25 12:28:23;;;;;;;19.98;8.93;;;8.70;99.90;;;;;;5063770;28;20522;-72
2022/12/25 12:31:04;;;;;;;19.05;8.57;;;8.80;99.90;;;;;;5082701;28;20420;-73
2022/12/25 12:33:36;;;;;;;17.92;9.07;;;8.80;99.90;;;;;;5069702;28;20090;-71
2022/12/25 12:36:04;;;;;;;19.40;8.13;;;9.00;99.90;;;;;;5064463;28;20066;-72
2022/12/25 12:38:31;;;;;;;19.25;8.65;;;8.80;99.90;;;;;;5047841;28;20483;-71
2022/12/25 12:41:03;;;;;;;18.17;8.07;;;8.80;99.90;;;;;;5063337;28;20300;-73
2022/12/25 12:43:43;;;;;;;18.50;8.13;;;8.80;99.90;;;;;;5064515;28;20105;-73
2022/12/25 12:46:18;;;;;;;14.95;7.50;;;8.80;99.90;;;;;;5063227;28;20501;-73
2022/12/25 12:48:47;;;;;;;18.70;7.70;;;8.80;99.90;;;;;;5047382;28;20048;-73
2022/12/25 12:51:31;;;;;;;18.20;8.55;;;8.80;99.90;;;;;;5063641;28;20043;-73
2022/12/25 12:54:24;;;;;;;17.98;7.57;;;8.80;99.90;;;;;;5064992;28;20709;-73
2022/12/25 12:57:05;;;;;;;22.15;8.38;;;8.80;99.90;;;;;;5043936;28;20052;-73
2022/12/25 12:59:45;;;;;;;19.90;8.85;;;8.80;99.90;;;;;;5064045;28;20056;-73
2022/12/25 13:02:29;;;;;;;17.95;7.85;;;8.80;99.90;;;;;;5051127;28;20098;-73
2022/12/25 13:05:14;;;;;;;14.90;6.72;;;8.90;99.90;;;;;;5063343;28;20159;-73
2022/12/25 13:08:03;;;;;;;21.48;7.18;;;8.90;99.90;;;;;;5047388;28;20316;-73
2022/12/25 13:10:39;;;;;;;16.45;7.80;;;8.90;99.90;;;;;;5081987;28;20055;-73
2022/12/25 13:13:18;;;;;;;15.40;8.00;;;8.90;99.90;;;;;;5063448;28;20048;-73
2022/12/25 13:15:47;;;;;;;20.13;7.82;;;8.90;99.90;;;;;;5064666;28;20078;-71
2022/12/25 13:18:13;;;;;;;21.05;9.55;;;8.90;99.90;;;;;;5046920;28;20055;-73
2022/12/25 13:21:00;;;;;;;16.42;8.70;;;8.90;99.90;;;;;;5049013;28;20652;-73
2022/12/25 13:23:32;;;;;;;17.08;7.97;;;8.90;99.90;;;;;;5063402;28;20117;-73
2022/12/25 13:26:29;;;;;;;18.23;8.50;;;8.90;99.90;;;;;;5061147;28;20131;-73
2022/12/25 13:28:55;;;;;;;15.07;7.50;;;8.90;99.90;;;;;;5043148;28;20161;-73
2022/12/25 13:31:26;;;;;;;19.02;8.52;;;8.90;99.90;;;;;;5072082;28;20594;-73
2022/12/25 13:34:02;;;;;;;15.15;7.50;;;8.90;99.90;;;;;;5064324;28;20420;-74
2022/12/25 13:36:33;;;;;;;17.08;9.25;;;8.90;99.90;;;;;;5064457;28;20059;-72
2022/12/25 13:38:59;;;;;;;15.77;9.57;;;8.90;99.90;;;;;;5041377;28;20048;-72
2022/12/25 13:44:25;;;;;;;24.80;11.85;;;9.00;99.90;;;;;;5086259;28;20055;-73
2022/12/25 13:46:51;;;;;;;24.30;10.95;;;8.90;99.90;;;;;;5067380;28;20567;-72
2022/12/25 13:49:22;;;;;;;22.10;11.00;;;9.00;99.90;;;;;;5086582;28;20044;-73
2022/12/25 13:51:49;;;;;;;14.80;7.97;;;9.00;99.90;;;;;;5050314;28;20051;-73
2022/12/25 13:54:16;;;;;;;16.08;8.20;;;9.00;99.90;;;;;;5067055;28;20036;-72
2022/12/25 13:56:46;;;;;;;16.83;7.75;;;9.00;99.90;;;;;;5067144;28;20036;-73
2022/12/25 13:59:17;;;;;;;20.38;8.10;;;9.00;99.90;;;;;;5066223;28;20455;-73
2022/12/25 14:01:44;;;;;;;13.52;8.02;;;9.00;99.90;;;;;;5067413;28;20133;-73
2022/12/25 14:04:20;;;;;;;20.75;8.60;;;9.00;99.90;;;;;;5049950;28;20082;-72
2022/12/25 14:06:47;;;;;;;20.08;8.05;;;9.00;99.90;;;;;;5077994;28;20402;-72
2022/12/25 14:09:14;;;;;;;14.73;7.78;;;9.10;99.90;;;;;;5053159;28;20047;-72
2022/12/25 14:11:46;;;;;;;15.48;7.30;;;9.00;99.90;;;;;;5072405;28;20044;-73
2022/12/25 14:14:24;;;;;;;18.77;8.25;;;9.00;99.90;;;;;;5053893;28;20063;-72
2022/12/25 14:16:53;;;;;;;19.58;8.45;;;9.00;99.90;;;;;;5049918;28;20071;-72
2022/12/25 14:19:30;;;;;;;20.40;7.88;;;9.00;99.90;;;;;;5082981;28;20043;-72
2022/12/25 14:22:04;;;;;;;15.35;7.82;;;9.00;99.90;;;;;;5066271;28;20044;-72
2022/12/25 14:24:32;;;;;;;11.48;7.47;;;9.00;99.90;;;;;;5066771;28;20495;-72
2022/12/25 14:27:27;;;;;;;16.98;7.80;;;9.00;99.90;;;;;;5065041;28;20640;-72
2022/12/25 14:29:56;;;;;;;18.67;7.30;;;9.00;99.90;;;;;;5048684;28;20524;-72
2022/12/25 14:32:30;;;;;;;15.27;8.00;;;9.00;99.90;;;;;;5059310;28;20059;-72
2022/12/25 14:35:00;;;;;;;15.38;7.60;;;9.00;99.90;;;;;;5082656;28;20047;-72
2022/12/25 14:37:29;;;;;;;18.38;8.48;;;9.10;99.90;;;;;;5066414;28;20071;-72
2022/12/25 14:40:01;;;;;;;20.58;9.13;;;9.00;99.90;;;;;;5083721;28;20052;-72